Current Radar or Satellite Image

Flhurricane.com - Central Florida Hurricane Center - Tracking Storms since 1995Hurricanes Without the Hype! Since 1995


Today is the last day of the 2021 Atlantic Hurricane Season. 8 landfalls including Ida, but no landfalls in the late season.
Days since last H. Landfall - US: Any 85 (Nicholas) , Major: 100 (Ida) Florida - Any: 1154 (Michael) Major: 1154 (Michael)
 


Archives 2010s >> 2010 Storm Forum

danielwAdministrator
Moderator


Reged: Wed
Posts: 3524
Loc: Hattiesburg,MS (31.3N 89.3W)
Re: Area of Concern - Hurricane Igor
      Mon Sep 20 2010 11:17 AM Attachment (858 downloads)

ED's report appears to be the Max Sustained wind at Hamilton, Bermuda. As the winds dropped off after that report and the pressure began to rise.

Midnight (4) Sep 20 78 (26) 77 (25) 28.56 (0967) S 59 light rain; blowing spray
11 PM (3) Sep 19 78 (26) 77 (25) 28.47 (0964) S 66 light rain; blowing spray
10 PM (2) Sep 19 78 (26) 77 (25) 28.50 (0965) SSE 68 light rain; blowing spray
9 PM (1) Sep 19 77 (25) 75 (24) 28.64 (0970) SE 52 light rain; blowing spray

http://weather.noaa.gov/weather/current/TXKF.html

Actual METARs from Hamilton. I don't know what the WMO abbreviation "BLPY" is for. I'll have to look that one up. "Spray shall be coded only as BLPY"
I guess that breaks down to BLowing sPraY-BLPY.

TXKF 200455Z 21040G51KT 2800 VCSH BR BKN014 BKN050 OVC140 27/24 Q0971 RMK R30/////R12///// PRESRR /
TXKF 200355Z 19051G68KT 0800 R30///// R12///// -RA BLPY 26/25 Q0967 RMK R30///// R12///// PK WND17078/01 PRES UNSTDY /
TXKF 200255Z 17057G73KT 0800 R30///// R12///// -RA BLPY BKN012 OVC050 26/25 Q0964 RMK R30///// R12///// PK WND 15081/18 PRESFR /
TXKF 200222Z 15059G81KT 0800 R30///// R12///// -RA BLPY BKN012 OVC050 26/25 Q0965 RMK R30///// R12///// PRESFR
TXKF 200155Z 14048G63KT 1600 -RA BLPY BKN012 OVC050 25/24 Q0967 RMK R30/////R12///// PRESFR /


Edited by danielw (Mon Sep 20 2010 11:26 AM)

Post Extras Print Post   Remind Me!     Notify Moderator


Entire topic
Subject Posted by Posted on
* Area of Interest - Igor Ed DunhamAdministrator Mon Sep 20 2010 11:17 AM
. * * Igor and the Atlantic Ed DunhamAdministrator   Mon Sep 13 2010 04:22 PM
. * * Area of Concern - Hurricane Igor Ed DunhamAdministrator   Sun Sep 19 2010 11:16 AM
. * * Re: Area of Concern - Hurricane Igor Ed DunhamAdministrator   Sun Sep 19 2010 05:13 PM
. * * Re: Area of Concern - Hurricane Igor Ed DunhamAdministrator   Sun Sep 19 2010 10:57 PM
. * * Re: Area of Concern - Hurricane Igor danielwAdministrator   Mon Sep 20 2010 11:17 AM

Extra information
0 registered and 0 anonymous users are browsing this forum.

Moderator:  MikeC, Ed Dunham, danielw 



Forum Permissions
      You cannot start new topics
      You cannot reply to topics
      HTML is disabled
      UBBCode is enabled

Rating:
Thread views: 12423

Rate this thread

Jump to

Note: This is NOT an official page. It is run by weather hobbyists and should not be used as a replacement for official sources. 
CFHC's main servers are currently located at Hostdime.com in Orlando, FL.
Image Server Network thanks to Mike Potts and Amazon Web Services. If you have static file hosting space that allows dns aliasing contact us to help out! Some Maps Provided by:
Great thanks to all who donated and everyone who uses the site as well. Site designed for 800x600+ resolution
When in doubt, take the word of the National Hurricane Center